Time;durP1;ratioP1;P1;durP2;ratioP2;P2;SDS_P1;SDS_P2;PMS_P1;PMS_P2;Temp;Humidity;BMP_temperature;BMP_pressure;BME280_temperature;BME280_humidity;BME280_pressure;Samples;Min_cycle;Max_cycle;Signal;HPM_P1;HPM_P2
2024/01/16 00:01:14;;;;;;;19.45;9.27;;;;;;;-0.53;100.00;100603.69;5042219;28;20052;-46
2024/01/16 00:03:41;;;;;;;20.38;9.45;;;;;;;-0.51;100.00;100596.06;5047411;28;20068;-46
2024/01/16 00:06:09;;;;;;;16.63;8.88;;;;;;;-0.51;100.00;100587.91;5047388;28;20037;-50
2024/01/16 00:08:36;;;;;;;20.13;9.23;;;;;;;-0.48;100.00;100595.53;5035692;28;20045;-50
2024/01/16 00:11:04;;;;;;;16.63;9.23;;;;;;;-0.46;100.00;100588.72;5045588;28;20044;-47
2024/01/16 00:13:33;;;;;;;21.23;9.27;;;;;;;-0.46;100.00;100591.44;5046794;28;20049;-49
2024/01/16 00:16:03;;;;;;;17.85;8.98;;;;;;;-0.45;100.00;100593.03;5029841;28;20076;-47
2024/01/16 00:18:30;;;;;;;18.25;9.98;;;;;;;-0.43;100.00;100576.47;5047434;28;20051;-49
2024/01/16 00:21:02;;;;;;;21.20;10.45;;;;;;;-0.40;100.00;100578.63;5041629;28;20045;-49
2024/01/16 00:23:32;;;;;;;19.50;8.48;;;;;;;-0.39;100.00;100569.38;5041016;28;20052;-51
2024/01/16 00:26:00;;;;;;;17.95;9.00;;;;;;;-0.38;100.00;100565.56;5025346;28;20041;-50
2024/01/16 00:28:27;;;;;;;20.27;9.23;;;;;;;-0.39;100.00;100558.50;5041703;28;20057;-50
2024/01/16 00:30:55;;;;;;;17.70;8.02;;;;;;;-0.39;100.00;100553.06;5047894;28;20136;-49
2024/01/16 00:33:23;;;;;;;20.77;8.80;;;;;;;-0.40;100.00;100543.28;5047039;28;20052;-47
2024/01/16 00:35:51;;;;;;;27.15;8.63;;;;;;;-0.42;100.00;100532.66;5038984;28;20064;-49
2024/01/16 00:38:18;;;;;;;18.55;7.85;;;;;;;-0.40;100.00;100546.00;5042720;28;20052;-45
2024/01/16 00:40:46;;;;;;;21.73;7.80;;;;;;;-0.39;100.00;100536.72;5047143;28;20057;-50
2024/01/16 00:43:13;;;;;;;17.85;8.50;;;;;;;-0.38;100.00;100532.94;5047110;28;20060;-49
2024/01/16 00:45:40;;;;;;;17.58;8.55;;;;;;;-0.37;100.00;100520.97;5047245;28;20056;-50
2024/01/16 00:48:10;;;;;;;13.30;7.18;;;;;;;-0.36;100.00;100508.97;5046930;28;20045;-48
2024/01/16 00:50:39;;;;;;;17.20;7.32;;;;;;;-0.35;100.00;100524.22;5047781;28;20061;-49
2024/01/16 00:53:06;;;;;;;15.73;8.35;;;;;;;-0.34;100.00;100521.22;5047132;28;20048;-49
2024/01/16 00:55:33;;;;;;;16.00;8.43;;;;;;;-0.33;100.00;100522.84;5047356;28;20045;-50
2024/01/16 00:58:01;;;;;;;15.32;7.28;;;;;;;-0.31;100.00;100511.69;5046970;28;20044;-46
2024/01/16 01:00:30;;;;;;;18.00;7.60;;;;;;;-0.30;100.00;100513.31;5046526;28;20056;-50
2024/01/16 01:03:01;;;;;;;13.80;7.78;;;;;;;-0.28;100.00;100522.00;5046827;28;20068;-52
2024/01/16 01:05:28;;;;;;;12.77;7.53;;;;;;;-0.29;100.00;100504.06;5029657;28;20052;-51
2024/01/16 01:07:56;;;;;;;14.40;7.30;;;;;;;-0.28;100.00;100511.13;5047142;28;20041;-50
2024/01/16 01:10:24;;;;;;;16.20;8.15;;;;;;;-0.29;100.00;100515.75;5046037;28;20058;-49
2024/01/16 01:12:53;;;;;;;16.42;6.50;;;;;;;-0.29;100.00;100514.97;5046009;28;20578;-50
2024/01/16 01:15:20;;;;;;;15.57;6.70;;;;;;;-0.30;100.00;100513.31;5046848;28;20052;-48
2024/01/16 01:17:49;;;;;;;17.88;7.50;;;;;;;-0.32;100.00;100504.63;5044346;28;20056;-48
2024/01/16 01:20:17;;;;;;;22.90;6.65;;;;;;;-0.33;100.00;100505.72;5045838;28;20049;-47
2024/01/16 01:22:45;;;;;;;17.63;7.95;;;;;;;-0.35;100.00;100497.03;5046125;28;20446;-45
2024/01/16 01:25:13;;;;;;;17.42;6.45;;;;;;;-0.37;100.00;100496.50;5049844;28;20049;-49
2024/01/16 01:27:40;;;;;;;16.80;7.50;;;;;;;-0.40;100.00;100491.63;5050810;28;20048;-49
2024/01/16 01:30:10;;;;;;;12.45;6.82;;;;;;;-0.42;100.00;100474.75;5049671;28;20099;-46
2024/01/16 01:32:38;;;;;;;13.10;7.00;;;;;;;-0.45;100.00;100483.47;5047818;28;20704;-47
2024/01/16 01:35:06;;;;;;;13.43;6.95;;;;;;;-0.48;100.00;100473.97;5031577;28;20423;-51
2024/01/16 01:37:33;;;;;;;16.90;6.30;;;;;;;-0.48;100.00;100467.72;5050311;28;20095;-51
2024/01/16 01:40:01;;;;;;;13.68;6.70;;;;;;;-0.52;100.00;100456.56;5049916;28;20049;-46
2024/01/16 01:42:28;;;;;;;14.00;6.47;;;;;;;-0.53;100.00;100462.31;5049914;28;20056;-48
2024/01/16 01:44:56;;;;;;;12.35;6.40;;;;;;;-0.55;100.00;100464.47;5048814;28;20045;-47
2024/01/16 01:47:23;;;;;;;9.20;5.03;;;;;;;-0.56;100.00;100460.97;5050152;28;20056;-46
2024/01/16 01:49:52;;;;;;;12.05;6.38;;;;;;;-0.57;100.00;100458.50;5019748;28;20495;-46
2024/01/16 01:52:20;;;;;;;24.20;5.90;;;;;;;-0.57;100.00;100447.63;5049452;28;20049;-53
2024/01/16 01:54:47;;;;;;;18.10;5.80;;;;;;;-0.59;100.00;100449.81;5049347;28;20056;-51
2024/01/16 01:57:14;;;;;;;7.97;5.10;;;;;;;-0.59;100.00;100444.38;5049970;28;20045;-50
2024/01/16 01:59:42;;;;;;;15.15;5.22;;;;;;;-0.59;100.00;100444.38;5039331;28;20080;-48
2024/01/16 02:02:11;;;;;;;15.00;5.15;;;;;;;-0.61;100.00;100431.88;5049294;28;20044;-51
2024/01/16 02:04:40;;;;;;;18.42;6.10;;;;;;;-0.59;100.00;100434.31;5049836;28;20057;-48
2024/01/16 02:07:08;;;;;;;17.60;4.57;;;;;;;-0.59;100.00;100431.59;5049570;28;20057;-47
2024/01/16 02:09:37;;;;;;;6.20;4.72;;;;;;;-0.61;100.00;100431.09;5049307;28;20049;-51
2024/01/16 02:12:06;;;;;;;19.98;5.30;;;;;;;-0.59;100.00;100430.78;5050294;28;20053;-52
2024/01/16 02:14:34;;;;;;;11.48;4.80;;;;;;;-0.59;100.00;100428.06;5048602;28;20045;-50
2024/01/16 02:17:02;;;;;;;10.40;4.78;;;;;;;-0.62;100.00;100435.69;5049517;28;20052;-50
2024/01/16 02:19:29;;;;;;;14.00;4.72;;;;;;;-0.63;100.00;100428.63;5048033;28;20049;-50
2024/01/16 02:22:00;;;;;;;11.40;5.05;;;;;;;-0.64;100.00;100426.97;5049250;28;20049;-50
2024/01/16 02:24:27;;;;;;;11.65;4.45;;;;;;;-0.63;100.00;100423.19;5026711;28;20051;-48
2024/01/16 02:26:56;;;;;;;12.05;4.28;;;;;;;-0.62;100.00;100424.81;5049554;28;20033;-50
2024/01/16 02:29:24;;;;;;;10.82;4.65;;;;;;;-0.62;100.00;100419.38;5049050;28;20045;-52
2024/01/16 02:31:51;;;;;;;10.80;4.40;;;;;;;-0.59;100.00;100419.91;5049210;28;20527;-49
2024/01/16 02:34:19;;;;;;;11.57;4.55;;;;;;;-0.57;100.00;100404.94;5049254;28;20037;-50
2024/01/16 02:36:46;;;;;;;10.55;4.75;;;;;;;-0.55;100.00;100399.22;5048690;28;20052;-51
2024/01/16 02:39:14;;;;;;;12.82;5.10;;;;;;;-0.53;100.00;100397.84;5049622;28;20048;-51
2024/01/16 02:41:41;;;;;;;13.52;6.20;;;;;;;-0.51;100.00;100392.97;5049626;28;20060;-52
2024/01/16 02:44:09;;;;;;;22.90;9.57;;;;;;;-0.48;100.00;100394.31;5046835;28;20049;-50
2024/01/16 02:46:38;;;;;;;22.02;13.55;;;;;;;-0.45;100.00;100399.97;5046443;28;20060;-49
2024/01/16 02:49:07;;;;;;;31.80;20.85;;;;;;;-0.43;100.00;100392.38;5049573;28;20041;-52
2024/01/16 02:51:34;;;;;;;39.25;21.92;;;;;;;-0.40;100.00;100393.72;5031103;28;20045;-48
2024/01/16 02:54:01;;;;;;;36.38;22.88;;;;;;;-0.36;100.00;100386.59;5049471;28;20045;-48
2024/01/16 02:56:29;;;;;;;34.60;22.25;;;;;;;-0.34;100.00;100390.66;5049301;28;20041;-51
2024/01/16 02:58:56;;;;;;;38.83;24.40;;;;;;;-0.32;100.00;100374.06;5049152;28;20053;-50
2024/01/16 03:01:24;;;;;;;36.47;22.60;;;;;;;-0.31;100.00;100376.50;5042137;28;20049;-46
2024/01/16 03:03:51;;;;;;;34.35;19.65;;;;;;;-0.29;100.00;100378.97;5044898;28;20053;-47
2024/01/16 03:06:25;;;;;;;28.30;16.10;;;;;;;-0.26;100.00;100378.38;5030628;28;20544;-49
2024/01/16 03:08:52;;;;;;;28.02;12.85;;;;;;;-0.25;100.00;100371.84;5045257;28;20411;-49
2024/01/16 03:11:20;;;;;;;18.83;9.90;;;;;;;-0.23;100.00;100356.03;5042870;28;20487;-53
2024/01/16 03:13:49;;;;;;;10.57;6.18;;;;;;;-0.22;100.00;100374.00;5035319;28;20058;-47
2024/01/16 03:16:17;;;;;;;12.45;5.32;;;;;;;-0.20;100.00;100369.09;5046022;28;20045;-48
2024/01/16 03:18:44;;;;;;;14.00;3.55;;;;;;;-0.18;100.00;100362.25;5047253;28;20052;-52
2024/01/16 03:21:13;;;;;;;18.95;3.88;;;;;;;-0.16;100.00;100356.56;5024838;28;20054;-49
2024/01/16 03:23:40;;;;;;;14.10;3.50;;;;;;;-0.15;100.00;100353.53;5048213;28;20056;-49
2024/01/16 03:26:13;;;;;;;12.55;3.40;;;;;;;-0.14;100.00;100343.47;5047448;28;20728;-52
2024/01/16 03:28:41;;;;;;;11.95;3.03;;;;;;;-0.12;100.00;100338.56;5044065;28;20053;-47
2024/01/16 03:31:08;;;;;;;8.38;3.15;;;;;;;-0.11;100.00;100340.19;5048858;28;20052;-47
2024/01/16 03:33:41;;;;;;;8.60;3.50;;;;;;;-0.09;100.00;100340.72;5046868;28;20044;-49
2024/01/16 03:36:10;;;;;;;9.38;3.20;;;;;;;-0.10;100.00;100339.88;5043559;28;20049;-49
2024/01/16 03:38:37;;;;;;;6.93;2.42;;;;;;;-0.09;100.00;100346.16;5046687;28;20049;-52
2024/01/16 03:41:06;;;;;;;8.68;2.65;;;;;;;-0.11;100.00;100340.19;5048924;28;20052;-50
2024/01/16 03:43:34;;;;;;;8.80;2.38;;;;;;;-0.10;100.00;100333.63;5047500;28;20052;-51
2024/01/16 03:46:02;;;;;;;3.88;2.58;;;;;;;-0.12;100.00;100324.94;5047574;28;20041;-49
2024/01/16 03:48:30;;;;;;;7.07;2.30;;;;;;;-0.14;100.00;100327.16;5030464;28;20052;-46
2024/01/16 03:50:57;;;;;;;12.82;2.88;;;;;;;-0.16;100.00;100321.97;5042471;28;20057;-50
2024/01/16 03:53:25;;;;;;;8.73;2.30;;;;;;;-0.16;100.00;100321.19;5042157;28;20038;-46
2024/01/16 03:55:52;;;;;;;11.50;2.00;;;;;;;-0.19;100.00;100313.59;5033732;28;20061;-51
2024/01/16 03:58:19;;;;;;;4.85;2.33;;;;;;;-0.19;100.00;100313.59;5037511;28;20136;-48
2024/01/16 04:00:47;;;;;;;6.75;2.28;;;;;;;-0.21;100.00;100307.59;5039079;28;20057;-52
2024/01/16 04:03:15;;;;;;;8.18;2.28;;;;;;;-0.21;100.00;100296.72;5047519;28;20056;-52
2024/01/16 04:05:42;;;;;;;10.85;2.83;;;;;;;-0.21;100.00;100294.00;5047353;28;20055;-52
2024/01/16 04:08:12;;;;;;;5.93;3.40;;;;;;;-0.21;100.00;100297.53;5043101;28;20053;-50
2024/01/16 04:10:39;;;;;;;4.47;2.53;;;;;;;-0.20;100.00;100298.34;5046017;28;20067;-46
2024/01/16 04:13:07;;;;;;;6.53;2.33;;;;;;;-0.25;100.00;100279.38;5030403;28;20067;-48
2024/01/16 04:15:37;;;;;;;6.90;2.28;;;;;;;-0.26;100.00;100258.69;5025059;28;20045;-53
2024/01/16 04:18:06;;;;;;;6.10;2.63;;;;;;;-0.27;100.00;100273.41;5046602;28;20047;-49
2024/01/16 04:20:33;;;;;;;5.07;2.60;;;;;;;-0.29;100.00;100260.06;5046195;28;20052;-50
2024/01/16 04:23:01;;;;;;;4.47;2.75;;;;;;;-0.29;100.00;100259.28;5029698;28;20411;-50
2024/01/16 04:25:28;;;;;;;8.13;2.03;;;;;;;-0.29;100.00;100248.41;5046921;28;20510;-51
2024/01/16 04:27:55;;;;;;;4.22;2.40;;;;;;;-0.29;100.00;100245.69;5046940;28;20383;-47
2024/01/16 04:30:27;;;;;;;6.88;2.50;;;;;;;-0.25;100.00;100241.28;5041271;28;20465;-51
2024/01/16 04:32:54;;;;;;;9.88;2.45;;;;;;;-0.23;100.00;100239.09;5041076;28;20056;-48
2024/01/16 04:35:23;;;;;;;8.43;2.50;;;;;;;-0.19;100.00;100242.88;5046880;28;20576;-51
2024/01/16 04:37:50;;;;;;;8.45;2.80;;;;;;;-0.18;100.00;100244.47;5047316;28;20080;-48
2024/01/16 04:40:17;;;;;;;6.22;1.80;;;;;;;-0.16;100.00;100239.56;5046693;28;20427;-48
2024/01/16 04:42:46;;;;;;;8.13;1.85;;;;;;;-0.14;100.00;100232.75;5045732;28;20041;-48
2024/01/16 04:45:14;;;;;;;8.55;2.25;;;;;;;-0.13;100.00;100230.81;5024052;28;20060;-46
2024/01/16 04:47:42;;;;;;;12.80;2.10;;;;;;;-0.13;100.00;100226.19;5039744;28;20051;-51
2024/01/16 04:50:09;;;;;;;6.80;1.95;;;;;;;-0.13;100.00;100234.34;5032727;28;20052;-52
2024/01/16 04:52:37;;;;;;;12.60;2.72;;;;;;;-0.11;100.00;100231.38;5046997;28;20103;-49
2024/01/16 04:55:05;;;;;;;4.07;1.50;;;;;;;-0.10;100.00;100230.25;5046768;28;20049;-47
2024/01/16 04:57:33;;;;;;;2.20;1.10;;;;;;;-0.10;100.00;100233.78;5046489;28;20057;-49
2024/01/16 05:00:00;;;;;;;4.55;1.67;;;;;;;-0.08;100.00;100223.41;5047010;28;20060;-47
2024/01/16 05:02:27;;;;;;;9.85;3.30;;;;;;;-0.08;100.00;100228.84;5045750;28;20419;-52
2024/01/16 05:04:55;;;;;;;4.60;1.52;;;;;;;-0.07;100.00;100224.22;5046633;28;20052;-52
2024/01/16 05:07:24;;;;;;;9.55;1.85;;;;;;;-0.08;100.00;100222.63;5045779;28;20403;-45
2024/01/16 05:09:52;;;;;;;6.65;1.65;;;;;;;-0.07;100.00;100216.06;5045504;28;20049;-50
2024/01/16 05:12:20;;;;;;;6.75;1.75;;;;;;;-0.05;100.00;100211.16;5045104;28;20056;-49
2024/01/16 05:14:47;;;;;;;3.80;1.95;;;;;;;-0.04;100.00;100201.91;5046578;28;20052;-48
2024/01/16 05:17:15;;;;;;;14.13;3.67;;;;;;;-0.04;100.00;100204.63;5046871;28;20051;-47
2024/01/16 05:19:42;;;;;;;2.80;1.48;;;;;;;-0.03;100.00;100206.25;5045772;28;20056;-51
2024/01/16 05:22:12;;;;;;;7.78;1.55;;;;;;;-0.03;100.00;100188.00;5046829;28;20057;-48
2024/01/16 05:24:40;;;;;;;3.85;1.63;;;;;;;-0.02;100.00;100195.06;5036834;28;20523;-48
2024/01/16 05:27:08;;;;;;;4.55;1.73;;;;;;;-0.01;100.00;100176.84;5041872;28;20041;-50
2024/01/16 05:29:37;;;;;;;4.63;1.52;;;;;;;0.00;100.00;100167.59;5046435;28;20049;-49
2024/01/16 05:32:08;;;;;;;8.90;1.63;;;;;;;0.01;100.00;100166.47;5046675;28;20049;-48
2024/01/16 05:34:36;;;;;;;7.15;1.88;;;;;;;0.00;100.00;100162.13;5046682;28;20076;-49
2024/01/16 05:37:03;;;;;;;8.23;1.45;;;;;;;0.00;100.00;100156.69;5028556;28;20403;-46
2024/01/16 05:39:30;;;;;;;4.45;1.48;;;;;;;-0.01;100.00;100146.91;5045778;28;20677;-47
2024/01/16 05:41:58;;;;;;;4.70;1.40;;;;;;;0.00;100.00;100137.66;5046323;28;20052;-50
2024/01/16 05:44:26;;;;;;;4.25;1.58;;;;;;;0.01;100.00;100139.25;5046000;28;20406;-48
2024/01/16 05:46:53;;;;;;;7.78;1.52;;;;;;;0.00;100.00;100132.22;5045711;28;20057;-49
2024/01/16 05:49:20;;;;;;;5.18;1.27;;;;;;;-0.02;100.00;100135.22;5028021;28;20049;-50
2024/01/16 05:51:48;;;;;;;3.70;1.52;;;;;;;-0.03;100.00;100130.06;5046063;28;20049;-52
2024/01/16 05:54:15;;;;;;;5.32;1.77;;;;;;;-0.05;100.00;100129.53;5046672;28;20128;-50
2024/01/16 05:56:42;;;;;;;8.13;1.90;;;;;;;-0.08;100.00;100109.16;5045208;28;20045;-47
2024/01/16 05:59:10;;;;;;;7.22;2.58;;;;;;;-0.11;100.00;100098.06;5045933;28;20053;-49
2024/01/16 06:01:37;;;;;;;6.60;1.63;;;;;;;-0.14;100.00;100099.44;5045668;28;20053;-48
2024/01/16 06:04:05;;;;;;;3.92;1.75;;;;;;;-0.15;100.00;100089.66;5033385;28;20045;-51
2024/01/16 06:06:33;;;;;;;3.05;1.08;;;;;;;-0.15;100.00;100086.94;5045549;28;20052;-49
2024/01/16 06:09:04;;;;;;;9.77;1.48;;;;;;;-0.15;100.00;100091.56;5044933;28;20052;-46
2024/01/16 06:11:32;;;;;;;5.80;0.82;;;;;;;-0.13;100.00;100086.63;5046290;28;20053;-48
2024/01/16 06:14:00;;;;;;;4.68;1.00;;;;;;;-0.13;100.00;100083.91;5050340;28;20064;-48
2024/01/16 06:16:27;;;;;;;7.75;1.10;;;;;;;-0.11;100.00;100070.84;5031372;28;20037;-51
2024/01/16 06:18:55;;;;;;;5.20;1.35;;;;;;;-0.09;100.00;100079.53;5049967;28;20060;-46
2024/01/16 06:21:22;;;;;;;8.95;1.42;;;;;;;-0.09;100.00;100068.66;5048186;28;20056;-48
2024/01/16 06:23:51;;;;;;;5.35;1.10;;;;;;;-0.12;100.00;100064.59;5046501;28;20387;-51
2024/01/16 06:26:18;;;;;;;5.70;1.50;;;;;;;-0.12;100.00;100066.50;5046055;28;20421;-46
2024/01/16 06:28:46;;;;;;;9.20;1.17;;;;;;;-0.13;100.00;100056.72;5031826;28;20048;-48
2024/01/16 06:31:13;;;;;;;3.80;1.08;;;;;;;-0.13;100.00;100067.59;5048169;28;20045;-46
2024/01/16 06:33:41;;;;;;;9.27;2.45;;;;;;;-0.15;100.00;100065.16;5049025;28;20048;-49
2024/01/16 06:36:10;;;;;;;8.75;1.30;;;;;;;-0.16;100.00;100066.25;5049387;28;20053;-52
2024/01/16 06:38:39;;;;;;;3.35;1.55;;;;;;;-0.14;100.00;100052.38;5049580;28;20057;-46
2024/01/16 06:41:07;;;;;;;3.70;1.63;;;;;;;-0.15;100.00;100048.03;5049077;28;20057;-48
2024/01/16 06:43:35;;;;;;;7.10;1.45;;;;;;;-0.14;100.00;100038.78;5049013;28;20057;-48
2024/01/16 06:46:02;;;;;;;10.95;1.73;;;;;;;-0.14;100.00;100036.06;5049264;28;20053;-47
2024/01/16 06:48:30;;;;;;;3.50;1.23;;;;;;;-0.13;100.00;100030.31;5017606;28;20096;-51
2024/01/16 06:50:58;;;;;;;6.90;1.48;;;;;;;-0.13;100.00;100030.31;5041474;28;20057;-47
2024/01/16 06:53:25;;;;;;;8.30;1.10;;;;;;;-0.11;100.00;100024.59;5030470;28;20053;-49
2024/01/16 06:55:52;;;;;;;3.35;1.00;;;;;;;-0.12;100.00;100023.78;5048661;28;20045;-51
2024/01/16 06:58:20;;;;;;;3.97;1.50;;;;;;;-0.12;100.00;100031.94;5048670;28;20044;-53
2024/01/16 07:00:47;;;;;;;4.15;1.98;;;;;;;-0.12;100.00;100020.25;5049157;28;20040;-51
2024/01/16 07:03:15;;;;;;;6.10;1.23;;;;;;;-0.13;100.00;100016.72;5047003;28;20049;-48
2024/01/16 07:05:43;;;;;;;5.78;1.55;;;;;;;-0.14;100.00;100009.69;5048215;28;20048;-48
2024/01/16 07:08:11;;;;;;;5.10;1.63;;;;;;;-0.16;100.00;100000.19;5030200;28;20040;-46
2024/01/16 07:10:38;;;;;;;6.15;1.73;;;;;;;-0.18;100.00;99995.03;5047398;28;20053;-46
2024/01/16 07:13:07;;;;;;;2.58;1.67;;;;;;;-0.18;100.00;99991.50;5031426;28;20059;-51
2024/01/16 07:15:34;;;;;;;2.50;1.00;;;;;;;-0.18;100.00;99983.31;5035698;28;20080;-51
2024/01/16 07:18:02;;;;;;;3.70;1.42;;;;;;;-0.18;100.00;99980.63;5047765;28;20045;-47
2024/01/16 07:20:29;;;;;;;4.13;0.80;;;;;;;-0.20;100.00;99969.22;5048818;28;20072;-52
2024/01/16 07:22:57;;;;;;;3.08;1.10;;;;;;;-0.19;100.00;99979.00;5047616;28;20045;-51
2024/01/16 07:25:24;;;;;;;1.90;1.00;;;;;;;-0.19;100.00;99970.84;5047744;28;20404;-51
2024/01/16 07:27:51;;;;;;;7.18;1.88;;;;;;;-0.18;100.00;99977.88;5047914;28;20045;-48
2024/01/16 07:30:19;;;;;;;6.43;1.38;;;;;;;-0.18;100.00;99967.00;5046785;28;20045;-47
2024/01/16 07:32:46;;;;;;;9.30;2.13;;;;;;;-0.19;100.00;99960.78;5047699;28;20060;-48
2024/01/16 07:35:14;;;;;;;3.63;1.42;;;;;;;-0.18;100.00;99964.28;5047654;28;20045;-49
2024/01/16 07:37:41;;;;;;;6.95;1.30;;;;;;;-0.19;100.00;99959.97;5047881;28;20048;-47
2024/01/16 07:40:10;;;;;;;3.22;1.38;;;;;;;-0.20;100.00;99955.63;5046050;28;20072;-49
2024/01/16 07:42:37;;;;;;;2.67;1.77;;;;;;;-0.19;100.00;99957.25;5038423;28;20572;-48
2024/01/16 07:45:05;;;;;;;6.30;1.13;;;;;;;-0.19;100.00;99958.06;5045260;28;20064;-49
2024/01/16 07:47:32;;;;;;;2.90;1.08;;;;;;;-0.18;100.00;99956.94;5039457;28;20063;-52
2024/01/16 07:50:01;;;;;;;5.32;1.23;;;;;;;-0.17;100.00;99955.03;5048965;28;20038;-48
2024/01/16 07:52:32;;;;;;;3.80;1.27;;;;;;;-0.14;100.00;99940.84;5047864;28;20045;-47
2024/01/16 07:55:01;;;;;;;3.58;0.95;;;;;;;-0.11;100.00;99934.81;5039784;28;20049;-49
2024/01/16 07:57:28;;;;;;;2.50;0.75;;;;;;;-0.08;100.00;99934.25;5047595;28;20045;-48
2024/01/16 07:59:55;;;;;;;4.07;0.90;;;;;;;-0.06;100.00;99937.47;5048023;28;20048;-48
2024/01/16 08:02:31;;;;;;;4.57;1.08;;;;;;;-0.04;100.00;99937.97;5047700;28;20060;-49
2024/01/16 08:04:59;;;;;;;3.60;0.80;;;;;;;-0.04;100.00;99944.22;5047389;28;20052;-49
2024/01/16 08:07:27;;;;;;;2.58;0.65;;;;;;;-0.02;100.00;99949.38;5048609;28;20052;-49
2024/01/16 08:10:01;;;;;;;2.50;0.90;;;;;;;0.00;100.00;99947.19;5034257;28;20041;-48
2024/01/16 08:12:28;;;;;;;2.33;1.02;;;;;;;-0.01;100.00;99949.09;5028821;28;20049;-46
2024/01/16 08:14:56;;;;;;;5.78;1.38;;;;;;;-0.01;100.00;99951.00;5028239;28;20050;-47
2024/01/16 08:17:23;;;;;;;1.83;0.70;;;;;;;-0.02;100.00;99950.19;5027626;28;20057;-48
2024/01/16 08:19:51;;;;;;;3.28;0.65;;;;;;;-0.01;100.00;99953.72;5044396;28;20041;-50
2024/01/16 08:22:18;;;;;;;1.67;0.60;;;;;;;0.02;100.00;99952.31;5048276;28;20044;-51
2024/01/16 08:24:45;;;;;;;2.25;1.00;;;;;;;0.05;100.00;99944.38;5048170;28;20720;-49
2024/01/16 08:27:13;;;;;;;2.60;0.70;;;;;;;0.06;100.00;99948.69;5045698;28;20041;-52
2024/01/16 08:29:40;;;;;;;4.25;1.80;;;;;;;0.10;100.00;99949.75;5028648;28;20868;-47
2024/01/16 08:32:07;;;;;;;3.30;1.52;;;;;;;0.12;100.00;99955.69;5047369;28;20049;-47
2024/01/16 08:34:35;;;;;;;2.45;1.10;;;;;;;0.15;100.00;99949.66;5046874;28;20483;-51
2024/01/16 08:37:04;;;;;;;8.20;1.48;;;;;;;0.19;100.00;99942.50;5047696;28;20052;-46
2024/01/16 08:39:33;;;;;;;1.17;0.70;;;;;;;0.22;100.00;99949.28;5046889;28;20045;-48
2024/01/16 08:42:03;;;;;;;9.95;1.85;;;;;;;0.24;100.00;99936.97;5033460;28;20049;-48
2024/01/16 08:44:30;;;;;;;2.42;1.00;;;;;;;0.27;100.00;99941.84;5043319;28;20048;-52
2024/01/16 08:46:59;;;;;;;2.25;0.93;;;;;;;0.30;100.00;99941.25;5046005;28;20054;-49
2024/01/16 08:49:27;;;;;;;3.70;0.98;;;;;;;0.36;100.00;99947.44;5038826;28;20041;-51
2024/01/16 08:51:54;;;;;;;1.65;0.70;;;;;;;0.38;100.00;99940.56;5046670;28;20053;-49
2024/01/16 08:54:22;;;;;;;5.80;0.82;;;;;;;0.43;100.00;99943.22;5045890;28;20072;-46
2024/01/16 08:56:50;;;;;;;2.80;0.98;;;;;;;0.45;100.00;99943.72;5028612;28;20049;-48
2024/01/16 08:59:17;;;;;;;2.83;1.45;;;;;;;0.46;100.00;99939.91;5029783;28;20429;-47
2024/01/16 09:01:45;;;;;;;6.15;1.08;;;;;;;0.49;100.00;99922.97;5040751;28;20064;-47
2024/01/16 09:04:12;;;;;;;1.55;0.77;;;;;;;0.53;100.00;99923.19;5046388;28;20064;-45
2024/01/16 09:06:39;;;;;;;7.78;0.88;;;;;;;0.57;100.00;99916.03;5045637;28;20052;-48
2024/01/16 09:09:09;;;;;;;2.17;0.82;;;;;;;0.59;100.00;99922.78;5045960;28;20049;-50
2024/01/16 09:11:36;;;;;;;5.10;1.20;;;;;;;0.61;100.00;99915.09;5045946;28;20056;-48
2024/01/16 09:14:03;;;;;;;4.95;1.05;;;;;;;0.63;100.00;99917.56;5047177;28;20053;-48
2024/01/16 09:16:31;;;;;;;1.75;0.93;;;;;;;0.65;100.00;99911.78;5043968;28;20052;-47
2024/01/16 09:18:58;;;;;;;5.22;0.70;;;;;;;0.66;100.00;99905.25;5028844;28;20063;-49
2024/01/16 09:21:26;;;;;;;1.30;1.05;;;;;;;0.67;99.81;99910.38;5046897;28;20056;-48
2024/01/16 09:23:53;;;;;;;1.65;0.50;;;;;;;0.68;99.97;99908.47;5029178;28;20053;-49
2024/01/16 09:26:21;;;;;;;2.65;0.80;;;;;;;0.69;99.59;99899.22;5045696;28;20049;-53
2024/01/16 09:28:48;;;;;;;3.22;0.85;;;;;;;0.70;99.81;99898.88;5046913;28;20499;-47
2024/01/16 09:31:16;;;;;;;4.93;0.82;;;;;;;0.71;99.69;99895.06;5046183;28;20400;-49
2024/01/16 09:33:43;;;;;;;1.77;0.70;;;;;;;0.74;99.37;99888.22;5038595;28;20053;-48
2024/01/16 09:36:11;;;;;;;2.00;1.23;;;;;;;0.75;99.48;99877.00;5032802;28;20056;-47
2024/01/16 09:38:39;;;;;;;3.63;1.10;;;;;;;0.78;99.56;99875.59;5045723;28;20875;-47
2024/01/16 09:41:07;;;;;;;2.70;1.10;;;;;;;0.79;99.34;99878.03;5028180;28;20056;-49
2024/01/16 09:43:36;;;;;;;3.55;0.98;;;;;;;0.80;99.34;99879.63;5028066;28;20060;-53
2024/01/16 09:46:08;;;;;;;7.38;0.95;;;;;;;0.81;99.23;99875.00;5046351;28;20052;-50
2024/01/16 09:48:35;;;;;;;3.22;1.52;;;;;;;0.83;99.01;99870.03;5048851;28;20056;-51
2024/01/16 09:51:03;;;;;;;2.53;0.90;;;;;;;0.85;98.88;99871.34;5049509;28;20055;-47
2024/01/16 09:53:31;;;;;;;4.45;1.30;;;;;;;0.89;98.83;99866.94;5043912;28;20045;-51
2024/01/16 09:56:02;;;;;;;4.07;1.15;;;;;;;0.92;98.39;99870.97;5049461;28;20041;-46
2024/01/16 09:58:35;;;;;;;10.30;1.35;;;;;;;0.91;98.52;99861.16;5050115;28;20052;-50
2024/01/16 10:01:04;;;;;;;2.97;0.93;;;;;;;0.92;98.32;99865.50;5049073;28;20058;-46
2024/01/16 10:03:34;;;;;;;1.52;0.75;;;;;;;0.91;98.39;99861.16;5050315;28;20044;-48
2024/01/16 10:06:05;;;;;;;1.25;0.85;;;;;;;0.89;97.89;99844.31;5048336;28;20038;-51
2024/01/16 10:08:33;;;;;;;2.38;0.95;;;;;;;0.91;97.96;99850.25;5047657;28;20049;-47
2024/01/16 10:11:01;;;;;;;2.97;1.20;;;;;;;0.91;98.06;99828.47;5048617;28;20049;-49
2024/01/16 10:13:29;;;;;;;2.63;0.73;;;;;;;0.91;98.18;99829.28;5044593;28;21190;-48
2024/01/16 10:15:57;;;;;;;1.55;0.82;;;;;;;0.93;98.04;99823.50;5023254;28;20056;-51
2024/01/16 10:18:26;;;;;;;5.30;1.10;;;;;;;0.94;97.84;99819.69;5026362;28;20037;-49
2024/01/16 10:20:54;;;;;;;1.77;1.02;;;;;;;0.93;97.77;99812.59;5042170;28;20049;-48
2024/01/16 10:23:29;;;;;;;1.58;0.98;;;;;;;0.95;97.51;99802.22;5047485;28;20030;-49
2024/01/16 10:26:10;;;;;;;1.95;0.80;;;;;;;0.96;97.32;99801.09;5048783;28;20049;-50
2024/01/16 10:28:39;;;;;;;1.50;0.60;;;;;;;0.99;97.13;99795.06;5039943;28;20060;-49
2024/01/16 10:31:11;;;;;;;0.90;0.80;;;;;;;0.99;97.33;99798.59;5047977;28;20116;-50
2024/01/16 10:33:40;;;;;;;2.95;0.90;;;;;;;1.03;97.00;99785.16;5049088;28;20056;-47
2024/01/16 10:36:10;;;;;;;3.85;1.05;;;;;;;1.03;97.42;99782.44;5036320;28;20053;-47
2024/01/16 10:38:39;;;;;;;5.22;0.90;;;;;;;1.03;96.91;99785.94;5030819;28;20052;-47
2024/01/16 10:41:16;;;;;;;5.43;1.15;;;;;;;1.03;96.96;99785.94;5047911;28;20384;-46
2024/01/16 10:43:44;;;;;;;4.13;1.00;;;;;;;1.06;96.88;99795.47;5048190;28;20056;-48
2024/01/16 10:46:14;;;;;;;1.00;0.75;;;;;;;1.06;97.26;99796.25;5049497;28;20041;-47
2024/01/16 10:48:58;;;;;;;4.80;0.90;;;;;;;1.09;97.01;99778.47;5048797;28;20045;-47
2024/01/16 10:51:32;;;;;;;5.22;2.85;;;;;;;1.09;96.74;99773.03;5048651;28;20045;-48
2024/01/16 10:54:08;;;;;;;1.40;0.98;;;;;;;1.08;96.61;99779.59;5048272;28;20086;-48
2024/01/16 10:56:35;;;;;;;3.40;1.10;;;;;;;1.08;96.50;99777.69;5048299;28;20041;-47
2024/01/16 10:59:24;;;;;;;2.55;0.77;;;;;;;1.08;96.65;99771.44;5049138;28;20052;-51
2024/01/16 11:01:56;;;;;;;2.92;1.85;;;;;;;1.07;96.74;99764.34;5048772;28;20419;-50
2024/01/16 11:04:24;;;;;;;2.73;1.07;;;;;;;1.06;96.73;99766.25;5047891;28;20045;-54
2024/01/16 11:06:52;;;;;;;1.00;0.77;;;;;;;1.06;96.21;99763.53;5047255;28;20041;-47
2024/01/16 11:09:21;;;;;;;6.57;1.52;;;;;;;1.07;96.29;99753.44;5030429;28;20044;-50
2024/01/16 11:11:50;;;;;;;1.85;0.88;;;;;;;1.08;96.75;99755.06;5048343;28;20403;-48
2024/01/16 11:14:18;;;;;;;3.20;1.00;;;;;;;1.09;96.67;99757.47;5048419;28;20053;-49
2024/01/16 11:16:48;;;;;;;2.92;1.05;;;;;;;1.12;96.55;99756.88;5047864;28;20052;-48
2024/01/16 11:19:17;;;;;;;3.53;0.98;;;;;;;1.17;96.43;99764.13;5048306;28;20060;-47
2024/01/16 11:22:06;;;;;;;6.60;1.48;;;;;;;1.21;96.48;99759.69;5036860;28;20049;-50
2024/01/16 11:24:33;;;;;;;4.32;1.08;;;;;;;1.26;96.44;99762.28;5048203;28;20056;-50
2024/01/16 11:27:01;;;;;;;5.97;0.95;;;;;;;1.31;96.27;99759.44;5047515;28;20060;-46